createdAt,value
2017-12-16T00:02:00.694Z,64.20
2017-12-16T00:04:29.298Z,64.20
2017-12-16T00:06:58.418Z,63.90
2017-12-16T00:09:26.632Z,63.90
2017-12-16T00:11:54.812Z,63.70
2017-12-16T00:14:23.186Z,63.80
2017-12-16T00:16:51.363Z,63.70
2017-12-16T00:19:19.553Z,63.80
2017-12-16T00:21:47.660Z,63.40
2017-12-16T00:24:15.841Z,63.10
2017-12-16T00:26:44.143Z,63.00
2017-12-16T00:29:13.412Z,63.00
2017-12-16T00:31:41.589Z,63.10
2017-12-16T00:34:09.902Z,63.40
2017-12-16T00:36:38.087Z,63.40
2017-12-16T00:39:06.361Z,63.60
2017-12-16T00:41:34.726Z,63.60
2017-12-16T00:44:03.518Z,63.30
2017-12-16T00:46:31.986Z,63.40
2017-12-16T00:49:00.483Z,62.90
2017-12-16T00:51:28.760Z,62.90
2017-12-16T00:53:57.754Z,63.30
2017-12-16T00:56:26.092Z,63.30
2017-12-16T00:58:54.313Z,63.40
2017-12-16T01:01:22.609Z,63.20
2017-12-16T01:03:51.776Z,62.80
2017-12-16T01:06:20.047Z,62.80
2017-12-16T01:08:48.318Z,62.80
2017-12-16T01:11:16.603Z,62.70
2017-12-16T01:13:44.854Z,62.60
2017-12-16T01:16:12.948Z,62.70
2017-12-16T01:18:41.112Z,63.00
2017-12-16T01:21:09.387Z,62.70
2017-12-16T01:23:37.549Z,62.70
2017-12-16T01:26:06.654Z,62.70
2017-12-16T01:28:34.938Z,62.70
2017-12-16T01:31:03.089Z,62.80
2017-12-16T01:33:43.168Z,62.90
2017-12-16T01:36:22.805Z,62.80
2017-12-16T01:38:51.307Z,62.70
2017-12-16T01:41:20.367Z,62.90
2017-12-16T01:43:48.668Z,62.90
2017-12-16T01:46:17.741Z,62.00
2017-12-16T01:48:46.134Z,62.00
2017-12-16T01:51:14.413Z,61.80
2017-12-16T01:53:42.487Z,61.00
2017-12-16T01:56:10.574Z,60.30
2017-12-16T01:58:39.634Z,59.50
2017-12-16T02:01:08.026Z,59.40
2017-12-16T02:03:36.496Z,59.20
2017-12-16T02:06:04.871Z,58.80
2017-12-16T02:08:33.265Z,58.50
2017-12-16T02:11:01.293Z,58.20
2017-12-16T02:13:29.494Z,57.20
2017-12-16T02:15:57.972Z,57.00
2017-12-16T02:18:26.637Z,57.10
2017-12-16T02:20:54.916Z,56.80
2017-12-16T02:23:23.474Z,56.80
2017-12-16T02:25:51.850Z,57.00
2017-12-16T02:28:20.059Z,57.30
2017-12-16T02:30:48.215Z,57.90
2017-12-16T02:33:16.697Z,58.00
2017-12-16T02:35:45.061Z,58.10
2017-12-16T02:38:13.479Z,58.20
2017-12-16T02:40:41.726Z,58.10
2017-12-16T02:43:09.814Z,58.00
2017-12-16T02:45:38.094Z,57.90
2017-12-16T02:48:06.165Z,58.30
2017-12-16T02:50:34.327Z,58.20
2017-12-16T02:53:02.708Z,58.20
2017-12-16T02:55:31.012Z,58.70
2017-12-16T02:58:00.197Z,59.80
2017-12-16T03:00:28.658Z,59.20
2017-12-16T03:02:57.069Z,59.40
2017-12-16T03:05:26.272Z,59.60
2017-12-16T03:07:55.346Z,59.80
2017-12-16T03:10:23.700Z,59.80
2017-12-16T03:12:51.994Z,60.30
2017-12-16T03:15:20.360Z,61.40
2017-12-16T03:17:48.527Z,61.00
2017-12-16T03:20:16.704Z,61.30
2017-12-16T03:22:45.085Z,61.60
2017-12-16T03:25:13.642Z,61.80
2017-12-16T03:27:41.959Z,62.00
2017-12-16T03:30:10.363Z,62.10
2017-12-16T03:32:39.604Z,62.00
2017-12-16T03:35:07.956Z,61.90
2017-12-16T03:37:36.193Z,61.90
2017-12-16T03:40:04.312Z,61.80
2017-12-16T03:42:32.771Z,62.50
2017-12-16T03:45:01.782Z,61.20
2017-12-16T03:47:30.103Z,61.20
2017-12-16T03:49:58.358Z,61.00
2017-12-16T03:52:26.938Z,60.10
2017-12-16T03:54:55.131Z,58.40
2017-12-16T03:57:23.272Z,57.90
2017-12-16T03:59:51.482Z,57.90
2017-12-16T04:02:20.691Z,56.80
2017-12-16T04:04:48.735Z,56.80
2017-12-16T04:07:17.232Z,55.20
2017-12-16T04:09:45.292Z,55.60
2017-12-16T04:12:13.653Z,54.70
2017-12-16T04:14:41.830Z,54.20
2017-12-16T04:17:09.811Z,54.60
2017-12-16T04:19:38.182Z,54.80
2017-12-16T04:22:06.566Z,55.10
2017-12-16T04:24:34.872Z,55.00
2017-12-16T04:27:03.947Z,55.40
2017-12-16T04:29:32.066Z,55.40
2017-12-16T04:32:00.273Z,55.50
2017-12-16T04:34:28.512Z,55.70
2017-12-16T04:36:56.910Z,56.10
2017-12-16T04:39:25.123Z,55.90
2017-12-16T04:41:53.406Z,55.30
2017-12-16T04:44:22.652Z,55.00
2017-12-16T04:46:50.660Z,54.90
2017-12-16T04:49:19.025Z,54.80
2017-12-16T04:51:47.215Z,54.40
2017-12-16T04:54:15.290Z,54.50
2017-12-16T04:56:44.306Z,54.60
2017-12-16T04:59:13.245Z,54.60
2017-12-16T05:01:41.830Z,54.60
2017-12-16T05:04:10.129Z,54.40
2017-12-16T05:06:38.436Z,54.40
2017-12-16T05:09:06.660Z,54.00
2017-12-16T05:11:35.151Z,54.20
2017-12-16T05:14:03.553Z,53.90
2017-12-16T05:16:32.593Z,53.70
2017-12-16T05:19:00.783Z,53.70
2017-12-16T05:21:28.986Z,53.40
2017-12-16T05:23:58.113Z,53.60
2017-12-16T05:26:26.530Z,53.50
2017-12-16T05:28:54.836Z,53.40
2017-12-16T05:31:22.998Z,53.20
2017-12-16T05:33:51.255Z,53.50
2017-12-16T05:36:19.508Z,53.80
2017-12-16T05:38:47.837Z,53.30
2017-12-16T05:41:16.885Z,54.00
2017-12-16T05:43:45.098Z,54.00
2017-12-16T05:46:13.356Z,54.10
2017-12-16T05:48:41.468Z,54.30
2017-12-16T05:51:10.543Z,53.80
2017-12-16T05:53:39.584Z,54.60
2017-12-16T05:56:07.782Z,54.00
2017-12-16T05:58:36.468Z,53.70
2017-12-16T06:01:04.773Z,53.80
2017-12-16T06:03:34.156Z,54.40
2017-12-16T06:06:02.828Z,54.40
2017-12-16T06:08:31.128Z,54.80
2017-12-16T06:10:59.968Z,56.30
2017-12-16T06:13:28.308Z,56.90
2017-12-16T06:15:57.448Z,58.30
2017-12-16T06:18:25.788Z,58.20
2017-12-16T06:20:55.128Z,59.00
2017-12-16T06:23:23.648Z,59.00
2017-12-16T06:25:53.148Z,60.20
2017-12-16T06:28:21.648Z,60.10
2017-12-16T06:30:50.827Z,60.70
2017-12-16T06:33:19.068Z,60.70
2017-12-16T06:35:47.648Z,61.00
2017-12-16T06:38:16.149Z,61.80
2017-12-16T06:40:44.508Z,62.10
2017-12-16T06:43:12.908Z,62.30
2017-12-16T06:45:41.108Z,62.70
2017-12-16T06:48:10.288Z,63.60
2017-12-16T06:50:38.528Z,63.50
2017-12-16T06:53:06.728Z,63.90
2017-12-16T06:55:35.052Z,63.90
2017-12-16T06:58:03.668Z,64.20
2017-12-16T07:00:32.048Z,64.40
2017-12-16T07:03:00.766Z,64.40
2017-12-16T07:05:30.066Z,64.90
2017-12-16T07:07:59.468Z,65.10
2017-12-16T07:10:28.767Z,65.30
2017-12-16T07:12:57.366Z,65.30
2017-12-16T07:15:26.746Z,65.60
2017-12-16T07:17:55.234Z,65.50
2017-12-16T07:20:24.606Z,65.90
2017-12-16T07:22:53.089Z,65.80
2017-12-16T07:25:21.766Z,66.20
2017-12-16T07:27:50.346Z,66.50
2017-12-16T07:30:18.826Z,66.60
2017-12-16T07:32:47.546Z,66.50
2017-12-16T07:35:15.946Z,66.20
2017-12-16T07:37:44.847Z,66.10
2017-12-16T07:40:13.086Z,66.10
2017-12-16T07:42:41.286Z,66.30
2017-12-16T07:45:09.526Z,66.40
2017-12-16T07:47:37.706Z,66.60
2017-12-16T07:50:05.946Z,66.80
2017-12-16T07:52:34.166Z,67.70
2017-12-16T07:55:03.446Z,67.10
2017-12-16T07:57:31.627Z,67.10
2017-12-16T07:59:59.786Z,67.10
2017-12-16T08:02:28.167Z,67.00
2017-12-16T08:04:56.653Z,66.80
2017-12-16T08:07:24.726Z,67.10
2017-12-16T08:09:52.866Z,67.00
2017-12-16T08:12:21.266Z,66.20
2017-12-16T08:14:51.087Z,66.90
2017-12-16T08:17:20.386Z,67.00
2017-12-16T08:19:48.996Z,67.00
2017-12-16T08:22:18.275Z,67.10
2017-12-16T08:24:47.634Z,67.60
2017-12-16T08:27:15.795Z,67.60
2017-12-16T08:29:44.214Z,67.80
2017-12-16T08:32:12.475Z,67.60
2017-12-16T08:34:40.914Z,67.80
2017-12-16T08:37:09.256Z,67.90
2017-12-16T08:39:37.634Z,67.70
2017-12-16T08:42:06.714Z,68.20
2017-12-16T08:44:34.854Z,67.50
2017-12-16T08:47:03.074Z,67.50
2017-12-16T08:49:31.553Z,67.60
2017-12-16T08:51:59.916Z,67.60
2017-12-16T08:54:28.115Z,67.50
2017-12-16T08:56:57.195Z,67.30
2017-12-16T08:59:26.999Z,67.50
2017-12-16T09:01:55.274Z,67.40
2017-12-16T09:04:23.754Z,67.80
2017-12-16T09:06:52.154Z,67.60
2017-12-16T09:09:21.054Z,68.00
2017-12-16T09:11:50.334Z,67.60
2017-12-16T09:14:18.694Z,67.50
2017-12-16T09:16:47.022Z,66.80
2017-12-16T09:19:15.125Z,67.50
2017-12-16T09:21:43.566Z,67.30
2017-12-16T09:24:11.806Z,67.50
2017-12-16T09:26:40.273Z,67.40
2017-12-16T09:29:08.470Z,67.90
2017-12-16T09:31:37.050Z,68.20
2017-12-16T09:34:05.210Z,68.00
2017-12-16T09:36:33.728Z,68.50
2017-12-16T09:39:02.893Z,67.40
2017-12-16T09:41:31.364Z,67.40
2017-12-16T09:43:59.957Z,67.70
2017-12-16T09:46:27.902Z,67.60
2017-12-16T09:48:55.867Z,67.70
2017-12-16T09:51:23.843Z,67.60
2017-12-16T09:53:52.723Z,67.70
2017-12-16T09:56:21.622Z,67.60
2017-12-16T09:58:49.706Z,67.60
2017-12-16T10:01:18.156Z,67.80
2017-12-16T10:03:46.433Z,68.20
2017-12-16T10:06:15.054Z,67.70
2017-12-16T10:08:44.353Z,68.30
2017-12-16T10:11:12.832Z,67.80
2017-12-16T10:13:40.953Z,67.50
2017-12-16T10:16:09.177Z,67.80
2017-12-16T10:18:38.473Z,68.20
2017-12-16T10:21:07.193Z,68.10
2017-12-16T10:23:36.333Z,67.50
2017-12-16T10:26:04.934Z,68.10
2017-12-16T10:28:33.532Z,67.80
2017-12-16T10:31:03.046Z,67.30
2017-12-16T10:33:32.026Z,67.60
2017-12-16T10:36:01.206Z,67.80
2017-12-16T10:38:29.427Z,67.80
2017-12-16T10:40:57.655Z,67.50
2017-12-16T10:43:26.254Z,67.40
2017-12-16T10:45:55.225Z,67.60
2017-12-16T10:48:23.765Z,67.50
2017-12-16T10:50:52.229Z,67.60
2017-12-16T10:53:21.265Z,68.10
2017-12-16T10:55:49.666Z,68.10
2017-12-16T10:58:18.256Z,68.50
2017-12-16T11:00:51.895Z,68.30
2017-12-16T11:03:20.352Z,68.40
2017-12-16T11:05:49.532Z,68.70
2017-12-16T11:08:17.812Z,68.70
2017-12-16T11:10:46.291Z,68.90
2017-12-16T11:13:14.351Z,69.00
2017-12-16T11:15:42.652Z,68.60
2017-12-16T11:18:12.051Z,69.00
2017-12-16T11:20:41.471Z,69.00
2017-12-16T11:23:09.837Z,68.90
2017-12-16T11:25:39.231Z,68.60
2017-12-16T11:28:08.792Z,69.40
2017-12-16T11:30:37.315Z,69.40
2017-12-16T11:33:06.612Z,69.70
2017-12-16T11:35:35.931Z,69.40
2017-12-16T11:38:04.391Z,69.30
2017-12-16T11:40:33.571Z,69.40
2017-12-16T11:43:02.319Z,69.30
2017-12-16T11:45:30.731Z,69.40
2017-12-16T11:47:59.765Z,69.20
2017-12-16T11:50:28.837Z,69.00
2017-12-16T11:52:57.112Z,69.00
2017-12-16T11:55:25.611Z,69.30
2017-12-16T11:57:54.749Z,69.40
2017-12-16T12:00:23.129Z,69.40
2017-12-16T12:02:51.630Z,69.20
2017-12-16T12:05:20.009Z,69.60
2017-12-16T12:07:48.490Z,69.20
2017-12-16T12:10:17.069Z,69.80
2017-12-16T12:12:45.232Z,69.80
2017-12-16T12:15:13.790Z,69.80
2017-12-16T12:17:42.329Z,69.60
2017-12-16T12:20:11.890Z,69.30
2017-12-16T12:22:40.290Z,69.30
2017-12-16T12:25:08.889Z,69.80
2017-12-16T12:27:37.209Z,69.50
2017-12-16T12:30:05.590Z,69.90
2017-12-16T12:32:34.211Z,69.50
2017-12-16T12:35:02.811Z,69.50
2017-12-16T12:37:32.092Z,70.00
2017-12-16T12:40:00.513Z,69.80
2017-12-16T12:42:29.369Z,69.70
2017-12-16T12:44:57.650Z,69.40
2017-12-16T12:47:26.250Z,69.60
2017-12-16T12:49:55.630Z,69.80
2017-12-16T12:52:23.849Z,69.80
2017-12-16T12:54:52.209Z,70.10
2017-12-16T12:57:21.171Z,69.40
2017-12-16T12:59:49.649Z,69.40
2017-12-16T13:02:18.029Z,69.60
2017-12-16T13:04:46.411Z,69.20
2017-12-16T13:07:14.489Z,69.40
2017-12-16T13:09:42.950Z,69.40
2017-12-16T13:12:11.228Z,69.00
2017-12-16T13:14:39.609Z,69.10
2017-12-16T13:17:07.889Z,69.20
2017-12-16T13:19:36.578Z,69.40
2017-12-16T13:22:04.850Z,69.40
2017-12-16T13:24:33.190Z,69.80
2017-12-16T13:27:01.349Z,70.20
2017-12-16T13:29:29.889Z,70.10
2017-12-16T13:31:59.410Z,70.60
2017-12-16T13:34:28.813Z,70.30
2017-12-16T13:36:58.152Z,70.00
2017-12-16T13:39:26.910Z,70.00
2017-12-16T13:41:55.449Z,70.20
2017-12-16T13:44:24.009Z,70.00
2017-12-16T13:46:52.351Z,70.10
2017-12-16T13:49:20.870Z,70.10
2017-12-16T13:51:49.390Z,70.20
2017-12-16T13:54:18.779Z,70.40
2017-12-16T13:56:47.029Z,70.30
2017-12-16T13:59:15.690Z,70.30
2017-12-16T14:01:44.229Z,70.30
2017-12-16T14:04:12.428Z,70.40
2017-12-16T14:06:40.949Z,70.60
2017-12-16T14:09:09.549Z,70.90
2017-12-16T14:11:37.810Z,69.90
2017-12-16T14:14:06.210Z,70.00
2017-12-16T14:16:34.711Z,69.80
2017-12-16T14:19:03.949Z,69.40
2017-12-16T14:21:32.191Z,69.40
2017-12-16T14:24:01.571Z,69.80
2017-12-16T14:26:29.909Z,69.80
2017-12-16T14:28:59.471Z,70.30
2017-12-16T14:31:28.670Z,69.40
2017-12-16T14:33:57.849Z,69.70
2017-12-16T14:36:26.009Z,69.70
2017-12-16T14:38:54.310Z,69.40
2017-12-16T14:41:23.929Z,69.40
2017-12-16T14:43:52.630Z,69.40
2017-12-16T14:46:21.069Z,69.30
2017-12-16T14:48:49.749Z,69.20
2017-12-16T14:51:18.049Z,69.70
2017-12-16T14:53:47.530Z,69.40
2017-12-16T14:56:16.110Z,69.30
2017-12-16T14:58:44.552Z,69.40
2017-12-16T15:01:13.170Z,69.60
2017-12-16T15:03:41.569Z,69.60
2017-12-16T15:06:10.849Z,69.60
2017-12-16T15:08:39.309Z,69.60
2017-12-16T15:11:07.909Z,69.70
2017-12-16T15:13:36.329Z,69.80
2017-12-16T15:16:04.876Z,69.90
2017-12-16T15:18:33.129Z,70.30
2017-12-16T15:21:01.629Z,70.40
2017-12-16T15:23:30.109Z,70.30
2017-12-16T15:25:58.352Z,70.10
2017-12-16T15:28:26.609Z,70.00
2017-12-16T15:30:55.129Z,69.80
2017-12-16T15:33:23.510Z,69.70
2017-12-16T15:35:51.609Z,69.70
2017-12-16T15:38:20.929Z,70.00
2017-12-16T15:40:49.050Z,70.10
2017-12-16T15:43:17.329Z,70.10
2017-12-16T15:45:45.509Z,70.30
2017-12-16T15:48:13.789Z,70.10
2017-12-16T15:50:41.850Z,70.30
2017-12-16T15:53:10.150Z,70.30
2017-12-16T15:55:39.470Z,70.00
2017-12-16T15:58:08.109Z,70.00
2017-12-16T16:00:36.729Z,70.10
2017-12-16T16:03:05.869Z,70.40
2017-12-16T16:05:34.148Z,70.60
2017-12-16T16:08:02.770Z,70.70
2017-12-16T16:10:32.178Z,70.40
2017-12-16T16:13:01.656Z,70.20
2017-12-16T16:15:30.449Z,70.20
2017-12-16T16:17:58.949Z,70.40
2017-12-16T16:20:28.288Z,70.60
2017-12-16T16:22:56.809Z,70.60
2017-12-16T16:25:25.048Z,70.40
2017-12-16T16:27:53.669Z,70.50
2017-12-16T16:30:21.949Z,70.80
2017-12-16T16:32:51.249Z,71.10
2017-12-16T16:35:20.330Z,70.80
2017-12-16T16:37:48.911Z,70.80
2017-12-16T16:40:17.228Z,70.90
2017-12-16T16:42:45.548Z,70.90
2017-12-16T16:45:14.069Z,70.90
2017-12-16T16:47:43.248Z,70.70
2017-12-16T16:50:11.629Z,70.70
2017-12-16T16:52:40.590Z,70.60
2017-12-16T16:55:08.888Z,70.60
2017-12-16T16:57:37.270Z,70.70
2017-12-16T17:00:05.849Z,70.70
2017-12-16T17:02:34.731Z,70.70
2017-12-16T17:05:02.909Z,70.70
2017-12-16T17:07:31.451Z,70.80
2017-12-16T17:10:00.049Z,70.70
2017-12-16T17:12:28.670Z,70.70
2017-12-16T17:14:57.128Z,71.00
2017-12-16T17:17:25.731Z,71.30
2017-12-16T17:19:55.129Z,71.50
2017-12-16T17:22:23.629Z,71.40
2017-12-16T17:24:52.890Z,71.30
2017-12-16T17:27:21.508Z,71.30
2017-12-16T17:29:50.990Z,71.30
2017-12-16T17:32:19.269Z,71.30
2017-12-16T17:34:47.668Z,71.60
2017-12-16T17:37:16.428Z,71.50
2017-12-16T17:39:44.730Z,70.90
2017-12-16T17:42:13.770Z,71.40
2017-12-16T17:44:42.409Z,71.40
2017-12-16T17:47:11.830Z,71.00
2017-12-16T17:49:40.249Z,71.00
2017-12-16T17:52:08.777Z,71.20
2017-12-16T17:54:38.051Z,71.20
2017-12-16T17:57:06.430Z,71.20
2017-12-16T17:59:34.809Z,71.10
2017-12-16T18:02:03.390Z,70.90
2017-12-16T18:04:31.770Z,71.60
2017-12-16T18:07:00.129Z,71.00
2017-12-16T18:09:28.815Z,71.00
2017-12-16T18:11:57.009Z,70.50
2017-12-16T18:14:25.296Z,70.40
2017-12-16T18:16:54.170Z,70.70
2017-12-16T18:19:22.750Z,70.60
2017-12-16T18:21:51.229Z,71.30
2017-12-16T18:24:19.629Z,71.10
2017-12-16T18:26:49.609Z,70.20
2017-12-16T18:29:18.311Z,70.20
2017-12-16T18:31:46.749Z,70.40
2017-12-16T18:34:15.349Z,70.60
2017-12-16T18:36:43.851Z,70.70
2017-12-16T18:39:12.385Z,70.50
2017-12-16T18:41:41.010Z,70.90
2017-12-16T18:44:09.489Z,70.60
2017-12-16T18:46:37.546Z,70.20
2017-12-16T18:49:05.905Z,70.20
2017-12-16T18:51:34.157Z,70.30
2017-12-16T18:54:02.496Z,70.20
2017-12-16T18:56:30.775Z,70.30
2017-12-16T18:58:59.025Z,70.50
2017-12-16T19:01:27.335Z,70.60
2017-12-16T19:03:56.735Z,70.70
2017-12-16T19:06:26.195Z,70.80
2017-12-16T19:08:54.815Z,70.70
2017-12-16T19:11:23.395Z,70.90
2017-12-16T19:13:51.895Z,70.80
2017-12-16T19:16:20.975Z,70.20
2017-12-16T19:18:49.163Z,70.20
2017-12-16T19:21:18.555Z,70.70
2017-12-16T19:23:47.896Z,70.70
2017-12-16T19:26:16.414Z,70.60
2017-12-16T19:28:44.896Z,71.60
2017-12-16T19:31:13.259Z,70.80
2017-12-16T19:33:41.555Z,70.40
2017-12-16T19:36:10.036Z,70.00
2017-12-16T19:38:39.136Z,69.70
2017-12-16T19:41:07.315Z,70.20
2017-12-16T19:43:36.708Z,70.50
2017-12-16T19:46:04.874Z,70.40
2017-12-16T19:48:33.158Z,70.60
2017-12-16T19:51:01.656Z,70.30
2017-12-16T19:53:30.635Z,70.00
2017-12-16T19:55:59.835Z,69.80
2017-12-16T19:58:28.935Z,69.80
2017-12-16T20:00:57.817Z,69.60
2017-12-16T20:03:26.690Z,70.30
2017-12-16T20:05:55.493Z,69.70
2017-12-16T20:08:24.813Z,69.20
2017-12-16T20:10:54.034Z,69.10
2017-12-16T20:13:22.553Z,69.10
2017-12-16T20:15:50.935Z,69.50
2017-12-16T20:18:19.076Z,69.30
2017-12-16T20:20:47.914Z,68.90
2017-12-16T20:23:17.193Z,69.30
2017-12-16T20:25:45.714Z,69.20
2017-12-16T20:28:14.933Z,69.40
2017-12-16T20:30:43.433Z,69.40
2017-12-16T20:33:12.513Z,69.40
2017-12-16T20:35:40.815Z,69.40
2017-12-16T20:38:09.013Z,69.30
2017-12-16T20:40:37.275Z,69.50
2017-12-16T20:43:05.655Z,69.60
2017-12-16T20:45:34.132Z,69.40
2017-12-16T20:48:02.413Z,70.00
2017-12-16T20:50:30.967Z,69.40
2017-12-16T20:52:59.667Z,69.90
2017-12-16T20:55:28.074Z,69.90
2017-12-16T20:57:56.966Z,70.30
2017-12-16T21:00:26.228Z,70.40
2017-12-16T21:02:54.887Z,71.10
2017-12-16T21:05:23.087Z,70.10
2017-12-16T21:07:51.488Z,70.10
2017-12-16T21:10:19.827Z,70.20
2017-12-16T21:12:48.227Z,70.30
2017-12-16T21:15:16.687Z,70.30
2017-12-16T21:17:44.927Z,70.40
2017-12-16T21:20:13.287Z,70.70
2017-12-16T21:22:42.667Z,71.40
2017-12-16T21:25:10.947Z,71.40
2017-12-16T21:27:39.329Z,71.00
2017-12-16T21:30:08.439Z,70.80
2017-12-16T21:32:37.507Z,70.70
2017-12-16T21:35:05.789Z,70.60
2017-12-16T21:37:34.067Z,70.60
2017-12-16T21:40:03.067Z,70.50
2017-12-16T21:42:32.328Z,70.70
2017-12-16T21:45:01.070Z,70.70
2017-12-16T21:47:30.447Z,70.90
2017-12-16T21:49:58.975Z,70.80
2017-12-16T21:52:27.307Z,70.90
2017-12-16T21:54:55.787Z,70.90
2017-12-16T21:57:24.215Z,70.30
2017-12-16T21:59:52.547Z,70.50
2017-12-16T22:02:22.047Z,70.70
2017-12-16T22:04:50.546Z,70.70
2017-12-16T22:07:19.708Z,70.80
2017-12-16T22:09:48.388Z,70.80
2017-12-16T22:12:16.767Z,70.70
2017-12-16T22:14:45.087Z,70.40
2017-12-16T22:17:13.527Z,70.60
2017-12-16T22:19:41.730Z,70.80
2017-12-16T22:22:10.887Z,70.60
2017-12-16T22:24:38.927Z,70.60
2017-12-16T22:27:08.131Z,70.20
2017-12-16T22:29:36.388Z,70.30
2017-12-16T22:32:04.727Z,70.70
2017-12-16T22:34:32.907Z,70.50
2017-12-16T22:37:02.187Z,70.60
2017-12-16T22:39:30.487Z,70.60
2017-12-16T22:41:59.767Z,70.40
2017-12-16T22:44:28.168Z,70.40
2017-12-16T22:46:57.347Z,70.40
2017-12-16T22:49:25.736Z,70.40
2017-12-16T22:51:53.887Z,70.50
2017-12-16T22:54:22.167Z,70.20
2017-12-16T22:56:50.847Z,70.10
2017-12-16T22:59:19.366Z,69.80
2017-12-16T23:01:47.727Z,70.00
2017-12-16T23:04:17.229Z,70.20
2017-12-16T23:06:45.608Z,70.20
2017-12-16T23:09:14.887Z,70.20
2017-12-16T23:11:43.607Z,70.10
2017-12-16T23:14:12.566Z,70.00
2017-12-16T23:16:40.774Z,70.00
2017-12-16T23:19:10.193Z,70.10
2017-12-16T23:21:38.413Z,70.00
2017-12-16T23:24:06.933Z,69.70
2017-12-16T23:26:36.213Z,69.60
2017-12-16T23:29:05.213Z,69.60
2017-12-16T23:31:34.293Z,69.60
2017-12-16T23:34:02.554Z,69.60
2017-12-16T23:36:30.833Z,69.90
2017-12-16T23:38:59.153Z,69.20
2017-12-16T23:41:27.533Z,69.40
2017-12-16T23:43:56.213Z,69.40
2017-12-16T23:46:24.773Z,69.40
2017-12-16T23:48:53.933Z,70.20
2017-12-16T23:51:22.853Z,69.40
2017-12-16T23:53:51.173Z,69.40
2017-12-16T23:56:19.812Z,69.40
2017-12-16T23:58:48.313Z,69.40
